sensor_id;sensor_type;location;lat;lon;timestamp;pressure;altitude;pressure_sealevel;temperature;humidity
23318;BME280;11831;55.918;37.746;2022-11-11T00:01:06;99644.53;;;9.16;0.00
23318;BME280;11831;55.918;37.746;2022-11-11T00:03:54;99632.81;;;9.55;0.00
23318;BME280;11831;55.918;37.746;2022-11-11T00:06:41;99628.34;;;9.42;0.00
23318;BME280;11831;55.918;37.746;2022-11-11T00:09:26;99623.53;;;9.26;0.00
23318;BME280;11831;55.918;37.746;2022-11-11T00:12:11;99630.97;;;9.17;0.00
23318;BME280;11831;55.918;37.746;2022-11-11T00:14:56;99638.97;;;9.24;0.00
23318;BME280;11831;55.918;37.746;2022-11-11T00:17:41;99640.44;;;9.13;0.00
23318;BME280;11831;55.918;37.746;2022-11-11T00:20:44;99635.44;;;9.30;0.00
23318;BME280;11831;55.918;37.746;2022-11-11T00:23:48;99634.91;;;9.46;0.00
23318;BME280;11831;55.918;37.746;2022-11-11T00:26:51;99625.28;;;9.70;0.00
23318;BME280;11831;55.918;37.746;2022-11-11T00:29:37;99642.41;;;9.31;0.00
23318;BME280;11831;55.918;37.746;2022-11-11T00:32:21;99621.59;;;9.40;0.00
23318;BME280;11831;55.918;37.746;2022-11-11T00:35:07;99620.94;;;9.44;0.00
23318;BME280;11831;55.918;37.746;2022-11-11T00:38:12;99634.38;;;9.31;0.00
23318;BME280;11831;55.918;37.746;2022-11-11T00:41:18;99632.31;;;9.33;0.00
23318;BME280;11831;55.918;37.746;2022-11-11T00:44:04;99619.22;;;9.56;0.00
23318;BME280;11831;55.918;37.746;2022-11-11T00:46:48;99616.91;;;9.35;0.00
23318;BME280;11831;55.918;37.746;2022-11-11T00:49:52;99631.28;;;9.34;0.00
23318;BME280;11831;55.918;37.746;2022-11-11T00:52:56;99634.66;;;9.16;0.00
23318;BME280;11831;55.918;37.746;2022-11-11T00:55:40;99626.53;;;9.68;0.00
23318;BME280;11831;55.918;37.746;2022-11-11T00:58:25;99606.13;;;9.48;0.00
23318;BME280;11831;55.918;37.746;2022-11-11T01:01:11;99606.19;;;9.42;0.00
23318;BME280;11831;55.918;37.746;2022-11-11T01:03:57;99615.25;;;9.90;0.00
23318;BME280;11831;55.918;37.746;2022-11-11T01:06:42;99628.06;;;9.25;0.00
23318;BME280;11831;55.918;37.746;2022-11-11T01:09:27;99612.87;;;9.26;0.00
23318;BME280;11831;55.918;37.746;2022-11-11T01:12:12;99618.28;;;9.13;0.00
23318;BME280;11831;55.918;37.746;2022-11-11T01:14:56;99612.22;;;9.62;0.00
23318;BME280;11831;55.918;37.746;2022-11-11T01:17:41;99614.78;;;9.44;0.00
23318;BME280;11831;55.918;37.746;2022-11-11T01:20:26;99643.31;;;9.12;0.00
23318;BME280;11831;55.918;37.746;2022-11-11T01:23:11;99624.19;;;9.53;0.00
23318;BME280;11831;55.918;37.746;2022-11-11T01:26:04;99618.94;;;9.40;0.00
23318;BME280;11831;55.918;37.746;2022-11-11T01:28:54;99625.69;;;9.42;0.00
23318;BME280;11831;55.918;37.746;2022-11-11T01:31:39;99624.97;;;9.28;0.00
23318;BME280;11831;55.918;37.746;2022-11-11T01:34:24;99606.69;;;9.57;0.00
23318;BME280;11831;55.918;37.746;2022-11-11T01:37:11;99609.38;;;9.57;0.00
23318;BME280;11831;55.918;37.746;2022-11-11T01:39:56;99611.75;;;9.40;0.00
23318;BME280;11831;55.918;37.746;2022-11-11T01:42:53;99621.53;;;9.53;0.00
23318;BME280;11831;55.918;37.746;2022-11-11T01:45:59;99604.37;;;9.36;0.00
23318;BME280;11831;55.918;37.746;2022-11-11T01:48:48;99629.66;;;9.33;0.00
23318;BME280;11831;55.918;37.746;2022-11-11T01:55:08;99615.59;;;9.44;0.00
23318;BME280;11831;55.918;37.746;2022-11-11T01:58:00;99623.06;;;9.36;0.00
23318;BME280;11831;55.918;37.746;2022-11-11T02:00:46;99615.16;;;9.54;0.00
23318;BME280;11831;55.918;37.746;2022-11-11T02:03:35;99613.59;;;9.40;0.00
23318;BME280;11831;55.918;37.746;2022-11-11T02:06:23;99625.59;;;9.55;0.00
23318;BME280;11831;55.918;37.746;2022-11-11T02:09:08;99612.22;;;9.62;0.00
23318;BME280;11831;55.918;37.746;2022-11-11T02:11:55;99610.13;;;9.64;0.00
23318;BME280;11831;55.918;37.746;2022-11-11T02:15:01;99607.16;;;9.47;0.00
23318;BME280;11831;55.918;37.746;2022-11-11T02:17:54;99615.84;;;9.68;0.00
23318;BME280;11831;55.918;37.746;2022-11-11T02:20:42;99621.94;;;9.75;0.00
23318;BME280;11831;55.918;37.746;2022-11-11T02:26:49;99617.25;;;9.45;0.00
23318;BME280;11831;55.918;37.746;2022-11-11T02:29:35;99626.00;;;9.27;0.00
23318;BME280;11831;55.918;37.746;2022-11-11T02:32:20;99621.75;;;9.45;0.00
23318;BME280;11831;55.918;37.746;2022-11-11T02:35:13;99615.78;;;9.18;0.00
23318;BME280;11831;55.918;37.746;2022-11-11T02:37:59;99613.56;;;9.71;0.00
23318;BME280;11831;55.918;37.746;2022-11-11T02:40:50;99615.38;;;9.21;0.00
23318;BME280;11831;55.918;37.746;2022-11-11T02:43:54;99615.03;;;9.67;0.00
23318;BME280;11831;55.918;37.746;2022-11-11T02:46:39;99618.13;;;9.39;0.00
23318;BME280;11831;55.918;37.746;2022-11-11T02:49:24;99615.81;;;9.49;0.00
23318;BME280;11831;55.918;37.746;2022-11-11T02:52:09;99599.66;;;9.62;0.00
23318;BME280;11831;55.918;37.746;2022-11-11T02:54:54;99622.97;;;9.49;0.00
23318;BME280;11831;55.918;37.746;2022-11-11T02:57:39;99611.53;;;9.42;0.00
23318;BME280;11831;55.918;37.746;2022-11-11T03:00:24;99629.69;;;9.26;0.00
23318;BME280;11831;55.918;37.746;2022-11-11T03:03:09;99621.38;;;9.41;0.00
23318;BME280;11831;55.918;37.746;2022-11-11T03:05:54;99610.81;;;9.78;0.00
23318;BME280;11831;55.918;37.746;2022-11-11T03:08:38;99615.19;;;9.47;0.00
23318;BME280;11831;55.918;37.746;2022-11-11T03:11:23;99611.06;;;9.51;0.00
23318;BME280;11831;55.918;37.746;2022-11-11T03:14:14;99616.34;;;9.58;0.00
23318;BME280;11831;55.918;37.746;2022-11-11T03:16:58;99608.19;;;9.46;0.00
23318;BME280;11831;55.918;37.746;2022-11-11T03:20:02;99628.28;;;9.55;0.00
23318;BME280;11831;55.918;37.746;2022-11-11T03:23:12;99608.91;;;9.35;0.00
23318;BME280;11831;55.918;37.746;2022-11-11T03:25:58;99610.72;;;9.41;0.00
23318;BME280;11831;55.918;37.746;2022-11-11T03:28:42;99619.47;;;9.55;0.00
23318;BME280;11831;55.918;37.746;2022-11-11T03:31:27;99621.31;;;9.54;0.00
23318;BME280;11831;55.918;37.746;2022-11-11T03:34:12;99614.28;;;9.60;0.00
23318;BME280;11831;55.918;37.746;2022-11-11T03:37:06;99618.06;;;9.46;0.00
23318;BME280;11831;55.918;37.746;2022-11-11T03:40:11;99625.88;;;9.72;0.00
23318;BME280;11831;55.918;37.746;2022-11-11T03:42:56;99620.87;;;9.57;0.00
23318;BME280;11831;55.918;37.746;2022-11-11T03:45:42;99619.19;;;9.63;0.00
23318;BME280;11831;55.918;37.746;2022-11-11T03:48:30;99621.75;;;9.51;0.00
23318;BME280;11831;55.918;37.746;2022-11-11T03:51:15;99627.28;;;9.50;0.00
23318;BME280;11831;55.918;37.746;2022-11-11T03:54:00;99617.75;;;9.60;0.00
23318;BME280;11831;55.918;37.746;2022-11-11T03:56:45;99624.78;;;9.55;0.00
23318;BME280;11831;55.918;37.746;2022-11-11T03:59:30;99625.84;;;9.47;0.00
23318;BME280;11831;55.918;37.746;2022-11-11T04:02:15;99631.50;;;9.32;0.00
23318;BME280;11831;55.918;37.746;2022-11-11T04:05:19;99621.97;;;9.50;0.00
23318;BME280;11831;55.918;37.746;2022-11-11T04:08:22;99623.16;;;9.79;0.00
23318;BME280;11831;55.918;37.746;2022-11-11T04:14:29;99634.28;;;9.44;0.00
23318;BME280;11831;55.918;37.746;2022-11-11T04:17:33;99626.34;;;9.38;0.00
23318;BME280;11831;55.918;37.746;2022-11-11T04:20:17;99629.97;;;9.50;0.00
23318;BME280;11831;55.918;37.746;2022-11-11T04:23:21;99631.50;;;9.64;0.00
23318;BME280;11831;55.918;37.746;2022-11-11T04:26:06;99638.81;;;9.44;0.00
23318;BME280;11831;55.918;37.746;2022-11-11T04:28:51;99645.09;;;9.24;0.00
23318;BME280;11831;55.918;37.746;2022-11-11T04:32:06;99646.97;;;9.24;0.00
23318;BME280;11831;55.918;37.746;2022-11-11T04:35:29;99650.22;;;9.26;0.00
23318;BME280;11831;55.918;37.746;2022-11-11T04:38:14;99654.75;;;9.25;0.00
23318;BME280;11831;55.918;37.746;2022-11-11T04:41:18;99656.84;;;9.48;0.00
23318;BME280;11831;55.918;37.746;2022-11-11T04:44:03;99649.47;;;9.50;0.00
23318;BME280;11831;55.918;37.746;2022-11-11T04:47:11;99652.16;;;9.06;0.00
23318;BME280;11831;55.918;37.746;2022-11-11T04:49:56;99656.59;;;9.25;0.00
23318;BME280;11831;55.918;37.746;2022-11-11T04:52:41;99664.81;;;9.23;0.00
23318;BME280;11831;55.918;37.746;2022-11-11T04:55:27;99662.88;;;9.69;0.00
23318;BME280;11831;55.918;37.746;2022-11-11T04:58:33;99663.13;;;9.29;0.00
23318;BME280;11831;55.918;37.746;2022-11-11T05:01:18;99671.84;;;9.49;0.00
23318;BME280;11831;55.918;37.746;2022-11-11T05:04:23;99666.16;;;9.39;0.00
23318;BME280;11831;55.918;37.746;2022-11-11T05:07:08;99645.75;;;9.51;0.00
23318;BME280;11831;55.918;37.746;2022-11-11T05:10:11;99651.06;;;9.58;0.00
23318;BME280;11831;55.918;37.746;2022-11-11T05:12:56;99666.56;;;9.36;0.00
23318;BME280;11831;55.918;37.746;2022-11-11T05:16:01;99662.50;;;9.65;0.00
23318;BME280;11831;55.918;37.746;2022-11-11T05:19:04;99662.66;;;9.39;0.00
23318;BME280;11831;55.918;37.746;2022-11-11T05:22:17;99661.19;;;9.43;0.00
23318;BME280;11831;55.918;37.746;2022-11-11T05:25:03;99663.34;;;9.27;0.00
23318;BME280;11831;55.918;37.746;2022-11-11T05:28:06;99659.88;;;9.58;0.00
23318;BME280;11831;55.918;37.746;2022-11-11T05:30:51;99667.06;;;9.58;0.00
23318;BME280;11831;55.918;37.746;2022-11-11T05:33:36;99671.66;;;9.44;0.00
23318;BME280;11831;55.918;37.746;2022-11-11T05:36:21;99674.66;;;9.23;0.00
23318;BME280;11831;55.918;37.746;2022-11-11T05:39:06;99668.97;;;9.51;0.00
23318;BME280;11831;55.918;37.746;2022-11-11T05:41:51;99665.75;;;9.36;0.00
23318;BME280;11831;55.918;37.746;2022-11-11T05:44:42;99672.44;;;9.20;0.00
23318;BME280;11831;55.918;37.746;2022-11-11T05:47:29;99682.25;;;9.26;0.00
23318;BME280;11831;55.918;37.746;2022-11-11T05:50:15;99679.88;;;9.49;0.00
23318;BME280;11831;55.918;37.746;2022-11-11T05:52:59;99681.66;;;9.55;0.00
23318;BME280;11831;55.918;37.746;2022-11-11T05:55:41;99687.16;;;9.29;0.00
23318;BME280;11831;55.918;37.746;2022-11-11T05:58:26;99685.19;;;9.49;0.00
23318;BME280;11831;55.918;37.746;2022-11-11T06:01:11;99667.41;;;9.68;0.00
23318;BME280;11831;55.918;37.746;2022-11-11T06:04:01;99690.25;;;9.26;0.00
23318;BME280;11831;55.918;37.746;2022-11-11T06:06:46;99691.97;;;9.52;0.00
23318;BME280;11831;55.918;37.746;2022-11-11T06:09:30;99692.38;;;9.80;0.00
23318;BME280;11831;55.918;37.746;2022-11-11T06:12:15;99696.03;;;9.86;0.00
23318;BME280;11831;55.918;37.746;2022-11-11T06:15:00;99695.94;;;9.68;0.00
23318;BME280;11831;55.918;37.746;2022-11-11T06:17:45;99689.72;;;9.80;0.00
23318;BME280;11831;55.918;37.746;2022-11-11T06:20:30;99708.69;;;9.65;0.00
23318;BME280;11831;55.918;37.746;2022-11-11T06:23:15;99707.59;;;9.80;0.00
23318;BME280;11831;55.918;37.746;2022-11-11T06:26:00;99697.63;;;10.18;0.00
23318;BME280;11831;55.918;37.746;2022-11-11T06:28:57;99713.13;;;9.78;0.00
23318;BME280;11831;55.918;37.746;2022-11-11T06:31:41;99692.72;;;10.40;0.00
23318;BME280;11831;55.918;37.746;2022-11-11T06:34:27;99699.28;;;9.63;0.00
23318;BME280;11831;55.918;37.746;2022-11-11T06:37:11;99696.44;;;9.58;0.00
23318;BME280;11831;55.918;37.746;2022-11-11T06:39:59;99692.72;;;9.59;0.00
23318;BME280;11831;55.918;37.746;2022-11-11T06:42:44;99696.97;;;9.98;0.00
23318;BME280;11831;55.918;37.746;2022-11-11T06:45:30;99697.03;;;10.16;0.00
23318;BME280;11831;55.918;37.746;2022-11-11T06:48:19;99719.94;;;9.74;0.00
23318;BME280;11831;55.918;37.746;2022-11-11T06:51:05;99703.97;;;10.24;0.00
23318;BME280;11831;55.918;37.746;2022-11-11T06:53:50;99704.28;;;10.34;0.00
23318;BME280;11831;55.918;37.746;2022-11-11T06:56:35;99703.25;;;9.79;0.00
23318;BME280;11831;55.918;37.746;2022-11-11T06:59:20;99693.16;;;10.12;0.00
23318;BME280;11831;55.918;37.746;2022-11-11T07:02:05;99707.84;;;10.28;0.00
23318;BME280;11831;55.918;37.746;2022-11-11T07:04:50;99720.72;;;9.81;0.00
23318;BME280;11831;55.918;37.746;2022-11-11T07:07:35;99713.09;;;9.85;0.00
23318;BME280;11831;55.918;37.746;2022-11-11T07:10:20;99731.63;;;9.80;0.00
23318;BME280;11831;55.918;37.746;2022-11-11T07:13:05;99714.00;;;10.29;0.00
23318;BME280;11831;55.918;37.746;2022-11-11T07:15:50;99721.13;;;9.78;0.00
23318;BME280;11831;55.918;37.746;2022-11-11T07:18:35;99716.66;;;9.72;0.00
23318;BME280;11831;55.918;37.746;2022-11-11T07:21:20;99732.63;;;9.79;0.00
23318;BME280;11831;55.918;37.746;2022-11-11T07:24:05;99721.94;;;9.79;0.00
23318;BME280;11831;55.918;37.746;2022-11-11T07:26:49;99717.41;;;9.54;0.00
23318;BME280;11831;55.918;37.746;2022-11-11T07:29:34;99713.13;;;9.78;0.00
23318;BME280;11831;55.918;37.746;2022-11-11T07:32:19;99725.16;;;9.62;0.00
23318;BME280;11831;55.918;37.746;2022-11-11T07:35:04;99739.59;;;9.48;0.00
23318;BME280;11831;55.918;37.746;2022-11-11T07:37:49;99728.31;;;9.78;0.00
23318;BME280;11831;55.918;37.746;2022-11-11T07:40:48;99730.53;;;9.87;0.00
23318;BME280;11831;55.918;37.746;2022-11-11T07:43:33;99728.13;;;10.36;0.00
23318;BME280;11831;55.918;37.746;2022-11-11T07:46:18;99728.53;;;10.08;0.00
23318;BME280;11831;55.918;37.746;2022-11-11T07:49:02;99746.19;;;9.77;0.00
23318;BME280;11831;55.918;37.746;2022-11-11T07:51:47;99743.13;;;10.12;0.00
23318;BME280;11831;55.918;37.746;2022-11-11T07:54:32;99730.97;;;10.09;0.00
23318;BME280;11831;55.918;37.746;2022-11-11T07:57:16;99732.66;;;10.04;0.00
23318;BME280;11831;55.918;37.746;2022-11-11T08:00:02;99732.94;;;10.27;0.00
23318;BME280;11831;55.918;37.746;2022-11-11T08:02:48;99745.75;;;9.87;0.00
23318;BME280;11831;55.918;37.746;2022-11-11T08:05:33;99746.09;;;9.97;0.00
23318;BME280;11831;55.918;37.746;2022-11-11T08:08:18;99736.75;;;10.06;0.00
23318;BME280;11831;55.918;37.746;2022-11-11T08:11:08;99748.09;;;10.33;0.00
23318;BME280;11831;55.918;37.746;2022-11-11T08:13:52;99753.94;;;9.92;0.00
23318;BME280;11831;55.918;37.746;2022-11-11T08:16:37;99745.38;;;9.77;0.00
23318;BME280;11831;55.918;37.746;2022-11-11T08:19:22;99743.91;;;9.87;0.00
23318;BME280;11831;55.918;37.746;2022-11-11T08:22:06;99734.56;;;9.96;0.00
23318;BME280;11831;55.918;37.746;2022-11-11T08:24:51;99725.81;;;10.14;0.00
23318;BME280;11831;55.918;37.746;2022-11-11T08:27:36;99709.22;;;10.06;0.00
23318;BME280;11831;55.918;37.746;2022-11-11T08:30:21;99716.97;;;10.20;0.00
23318;BME280;11831;55.918;37.746;2022-11-11T08:33:05;99709.81;;;10.08;0.00
23318;BME280;11831;55.918;37.746;2022-11-11T08:35:51;99713.22;;;9.65;0.00
23318;BME280;11831;55.918;37.746;2022-11-11T08:38:34;99734.66;;;9.52;0.00
23318;BME280;11831;55.918;37.746;2022-11-11T08:41:18;99731.66;;;9.73;0.00
23318;BME280;11831;55.918;37.746;2022-11-11T08:44:06;99735.28;;;9.54;0.00
23318;BME280;11831;55.918;37.746;2022-11-11T08:46:51;99723.62;;;9.80;0.00
23318;BME280;11831;55.918;37.746;2022-11-11T08:49:36;99722.75;;;9.86;0.00
23318;BME280;11831;55.918;37.746;2022-11-11T08:52:21;99704.00;;;10.17;0.00
23318;BME280;11831;55.918;37.746;2022-11-11T08:55:06;99726.47;;;9.85;0.00
23318;BME280;11831;55.918;37.746;2022-11-11T08:57:58;99708.31;;;10.18;0.00
23318;BME280;11831;55.918;37.746;2022-11-11T09:00:43;99712.06;;;9.86;0.00
23318;BME280;11831;55.918;37.746;2022-11-11T09:03:28;99718.87;;;10.07;0.00
23318;BME280;11831;55.918;37.746;2022-11-11T09:06:14;99715.94;;;10.21;0.00
23318;BME280;11831;55.918;37.746;2022-11-11T09:09:00;99713.41;;;10.26;0.00
23318;BME280;11831;55.918;37.746;2022-11-11T09:11:45;99714.44;;;10.25;0.00
23318;BME280;11831;55.918;37.746;2022-11-11T09:14:30;99720.59;;;10.26;0.00
23318;BME280;11831;55.918;37.746;2022-11-11T09:17:15;99721.06;;;10.16;0.00
23318;BME280;11831;55.918;37.746;2022-11-11T09:20:00;99727.31;;;10.10;0.00
23318;BME280;11831;55.918;37.746;2022-11-11T09:22:47;99727.75;;;10.01;0.00
23318;BME280;11831;55.918;37.746;2022-11-11T09:25:32;99734.97;;;10.00;0.00
23318;BME280;11831;55.918;37.746;2022-11-11T09:28:17;99737.03;;;10.30;0.00
23318;BME280;11831;55.918;37.746;2022-11-11T09:31:02;99726.37;;;10.23;0.00
23318;BME280;11831;55.918;37.746;2022-11-11T09:33:47;99737.34;;;10.08;0.00
23318;BME280;11831;55.918;37.746;2022-11-11T09:36:32;99741.28;;;10.06;0.00
23318;BME280;11831;55.918;37.746;2022-11-11T09:39:17;99744.78;;;10.06;0.00
23318;BME280;11831;55.918;37.746;2022-11-11T09:42:19;99746.84;;;10.04;0.00
23318;BME280;11831;55.918;37.746;2022-11-11T09:51:31;99743.63;;;10.27;0.00
23318;BME280;11831;55.918;37.746;2022-11-11T09:57:57;99734.87;;;10.81;0.00
23318;BME280;11831;55.918;37.746;2022-11-11T10:00:48;99733.31;;;10.74;0.00
23318;BME280;11831;55.918;37.746;2022-11-11T10:03:46;99725.53;;;10.72;0.00
23318;BME280;11831;55.918;37.746;2022-11-11T10:06:35;99725.53;;;10.72;0.00
23318;BME280;11831;55.918;37.746;2022-11-11T10:09:41;99738.88;;;10.54;0.00
23318;BME280;11831;55.918;37.746;2022-11-11T10:12:38;99738.34;;;10.20;0.00
23318;BME280;11831;55.918;37.746;2022-11-11T10:15:35;99751.69;;;10.45;0.00
23318;BME280;11831;55.918;37.746;2022-11-11T10:21:22;99758.31;;;10.43;0.00
23318;BME280;11831;55.918;37.746;2022-11-11T10:24:14;99754.03;;;10.35;0.00
23318;BME280;11831;55.918;37.746;2022-11-11T10:27:03;99756.97;;;10.52;0.00
23318;BME280;11831;55.918;37.746;2022-11-11T10:29:50;99764.34;;;10.32;0.00
23318;BME280;11831;55.918;37.746;2022-11-11T10:32:36;99769.38;;;10.46;0.00
23318;BME280;11831;55.918;37.746;2022-11-11T10:35:23;99779.28;;;10.39;0.00
23318;BME280;11831;55.918;37.746;2022-11-11T10:38:37;99770.06;;;10.35;0.00
23318;BME280;11831;55.918;37.746;2022-11-11T10:41:37;99778.69;;;10.37;0.00
23318;BME280;11831;55.918;37.746;2022-11-11T10:44:30;99790.91;;;10.26;0.00
23318;BME280;11831;55.918;37.746;2022-11-11T10:47:28;99788.84;;;10.53;0.00
23318;BME280;11831;55.918;37.746;2022-11-11T10:53:11;99800.81;;;10.19;0.00
23318;BME280;11831;55.918;37.746;2022-11-11T10:59:01;99803.31;;;10.14;0.00
23318;BME280;11831;55.918;37.746;2022-11-11T11:04:46;99788.31;;;10.45;0.00
23318;BME280;11831;55.918;37.746;2022-11-11T11:07:44;99792.47;;;10.41;0.00
23318;BME280;11831;55.918;37.746;2022-11-11T11:10:41;99793.59;;;10.26;0.00
23318;BME280;11831;55.918;37.746;2022-11-11T11:13:30;99804.50;;;10.25;0.00
23318;BME280;11831;55.918;37.746;2022-11-11T11:16:22;99804.59;;;10.37;0.00
23318;BME280;11831;55.918;37.746;2022-11-11T11:22:03;99801.88;;;10.68;0.00
23318;BME280;11831;55.918;37.746;2022-11-11T11:24:48;99812.72;;;10.23;0.00
23318;BME280;11831;55.918;37.746;2022-11-11T11:27:33;99810.16;;;10.35;0.00
23318;BME280;11831;55.918;37.746;2022-11-11T11:30:25;99825.53;;;10.08;0.00
23318;BME280;11831;55.918;37.746;2022-11-11T11:33:09;99825.41;;;9.96;0.00
23318;BME280;11831;55.918;37.746;2022-11-11T11:35:54;99826.03;;;9.92;0.00
23318;BME280;11831;55.918;37.746;2022-11-11T11:38:44;99839.78;;;9.95;0.00
23318;BME280;11831;55.918;37.746;2022-11-11T11:41:42;99828.41;;;10.07;0.00
23318;BME280;11831;55.918;37.746;2022-11-11T11:47:34;99822.09;;;10.01;0.00
23318;BME280;11831;55.918;37.746;2022-11-11T11:50:47;99827.81;;;10.05;0.00
23318;BME280;11831;55.918;37.746;2022-11-11T11:56:40;99820.59;;;10.12;0.00
23318;BME280;11831;55.918;37.746;2022-11-11T11:59:55;99818.16;;;10.10;0.00
23318;BME280;11831;55.918;37.746;2022-11-11T12:03:04;99829.41;;;9.74;0.00
23318;BME280;11831;55.918;37.746;2022-11-11T12:06:21;99830.47;;;9.67;0.00
23318;BME280;11831;55.918;37.746;2022-11-11T12:12:25;99821.56;;;10.24;0.00
23318;BME280;11831;55.918;37.746;2022-11-11T12:21:14;99803.22;;;9.96;0.00
23318;BME280;11831;55.918;37.746;2022-11-11T12:24:08;99803.41;;;10.33;0.00
23318;BME280;11831;55.918;37.746;2022-11-11T12:30:14;99803.56;;;10.38;0.00
23318;BME280;11831;55.918;37.746;2022-11-11T12:33:19;99807.31;;;10.30;0.00
23318;BME280;11831;55.918;37.746;2022-11-11T12:39:46;99806.16;;;10.19;0.00
23318;BME280;11831;55.918;37.746;2022-11-11T13:16:50;99770.44;;;10.64;0.00
23318;BME280;11831;55.918;37.746;2022-11-11T13:19:43;99781.63;;;10.54;0.00
23318;BME280;11831;55.918;37.746;2022-11-11T13:22:30;99778.69;;;10.62;0.00
23318;BME280;11831;55.918;37.746;2022-11-11T13:25:23;99773.69;;;10.47;0.00
23318;BME280;11831;55.918;37.746;2022-11-11T13:34:12;99786.72;;;10.37;0.00
23318;BME280;11831;55.918;37.746;2022-11-11T13:36:58;99791.72;;;10.27;0.00
23318;BME280;11831;55.918;37.746;2022-11-11T13:39:48;99772.28;;;10.63;0.00
23318;BME280;11831;55.918;37.746;2022-11-11T13:42:40;99774.13;;;10.87;0.00
23318;BME280;11831;55.918;37.746;2022-11-11T13:45:36;99778.81;;;10.49;0.00
23318;BME280;11831;55.918;37.746;2022-11-11T13:48:30;99793.59;;;10.20;0.00
23318;BME280;11831;55.918;37.746;2022-11-11T13:51:33;99782.97;;;10.45;0.00
23318;BME280;11831;55.918;37.746;2022-11-11T14:00:00;99777.19;;;10.48;0.00
23318;BME280;11831;55.918;37.746;2022-11-11T14:02:45;99803.09;;;10.16;0.00
23318;BME280;11831;55.918;37.746;2022-11-11T14:05:30;99804.72;;;10.23;0.00
23318;BME280;11831;55.918;37.746;2022-11-11T14:11:34;99806.81;;;10.15;0.00
23318;BME280;11831;55.918;37.746;2022-11-11T14:17:19;99807.03;;;10.07;0.00
23318;BME280;11831;55.918;37.746;2022-11-11T14:26:22;99762.19;;;10.65;0.00
23318;BME280;11831;55.918;37.746;2022-11-11T14:29:18;99783.28;;;10.30;0.00
23318;BME280;11831;55.918;37.746;2022-11-11T14:35:35;99751.66;;;10.70;0.00
23318;BME280;11831;55.918;37.746;2022-11-11T14:38:46;99742.19;;;10.49;0.00
23318;BME280;11831;55.918;37.746;2022-11-11T14:41:48;99739.38;;;10.63;0.00
23318;BME280;11831;55.918;37.746;2022-11-11T14:47:55;99744.16;;;10.36;0.00
23318;BME280;11831;55.918;37.746;2022-11-11T14:50:41;99746.12;;;10.47;0.00
23318;BME280;11831;55.918;37.746;2022-11-11T14:53:35;99745.75;;;10.43;0.00
23318;BME280;11831;55.918;37.746;2022-11-11T14:56:23;99746.88;;;10.29;0.00
23318;BME280;11831;55.918;37.746;2022-11-11T14:59:11;99733.16;;;10.69;0.00
23318;BME280;11831;55.918;37.746;2022-11-11T15:01:59;99741.56;;;10.72;0.00
23318;BME280;11831;55.918;37.746;2022-11-11T15:04:46;99733.94;;;10.76;0.00
23318;BME280;11831;55.918;37.746;2022-11-11T15:08:24;99739.50;;;10.74;0.00
23318;BME280;11831;55.918;37.746;2022-11-11T15:10:57;99732.00;;;10.83;0.00
23318;BME280;11831;55.918;37.746;2022-11-11T15:17:40;99735.63;;;10.88;0.00
23318;BME280;11831;55.918;37.746;2022-11-11T15:20:44;99724.84;;;10.95;0.00
23318;BME280;11831;55.918;37.746;2022-11-11T15:23:48;99715.62;;;10.91;0.00
23318;BME280;11831;55.918;37.746;2022-11-11T15:26:45;99708.56;;;10.97;0.00
23318;BME280;11831;55.918;37.746;2022-11-11T15:29:59;99740.34;;;10.50;0.00
23318;BME280;11831;55.918;37.746;2022-11-11T15:36:14;99701.34;;;10.42;0.00
23318;BME280;11831;55.918;37.746;2022-11-11T15:39:05;99701.91;;;10.26;0.00
23318;BME280;11831;55.918;37.746;2022-11-11T15:41:54;99696.66;;;10.13;0.00
23318;BME280;11831;55.918;37.746;2022-11-11T15:44:38;99685.03;;;10.25;0.00
23318;BME280;11831;55.918;37.746;2022-11-11T15:47:24;99681.37;;;10.20;0.00
23318;BME280;11831;55.918;37.746;2022-11-11T15:50:18;99702.06;;;10.31;0.00
23318;BME280;11831;55.918;37.746;2022-11-11T15:53:12;99690.47;;;10.37;0.00
23318;BME280;11831;55.918;37.746;2022-11-11T15:55:58;99691.84;;;10.46;0.00
23318;BME280;11831;55.918;37.746;2022-11-11T15:58:45;99694.81;;;10.13;0.00
23318;BME280;11831;55.918;37.746;2022-11-11T16:01:30;99692.41;;;10.30;0.00
23318;BME280;11831;55.918;37.746;2022-11-11T16:04:18;99709.13;;;10.19;0.00
23318;BME280;11831;55.918;37.746;2022-11-11T16:07:04;99713.44;;;10.20;0.00
23318;BME280;11831;55.918;37.746;2022-11-11T16:09:49;99729.28;;;10.21;0.00
23318;BME280;11831;55.918;37.746;2022-11-11T16:12:47;99716.69;;;9.97;0.00
23318;BME280;11831;55.918;37.746;2022-11-11T16:15:48;99724.31;;;10.50;0.00
23318;BME280;11831;55.918;37.746;2022-11-11T16:18:46;99718.66;;;10.08;0.00
23318;BME280;11831;55.918;37.746;2022-11-11T16:21:53;99717.34;;;10.24;0.00
23318;BME280;11831;55.918;37.746;2022-11-11T16:24:41;99717.78;;;10.21;0.00
23318;BME280;11831;55.918;37.746;2022-11-11T16:27:31;99725.81;;;10.14;0.00
23318;BME280;11831;55.918;37.746;2022-11-11T16:30:29;99719.44;;;10.15;0.00
23318;BME280;11831;55.918;37.746;2022-11-11T16:33:33;99723.75;;;10.16;0.00
23318;BME280;11831;55.918;37.746;2022-11-11T16:36:19;99723.16;;;10.14;0.00
23318;BME280;11831;55.918;37.746;2022-11-11T16:39:16;99731.47;;;10.00;0.00
23318;BME280;11831;55.918;37.746;2022-11-11T16:42:06;99708.00;;;10.33;0.00
23318;BME280;11831;55.918;37.746;2022-11-11T16:45:03;99702.16;;;10.18;0.00
23318;BME280;11831;55.918;37.746;2022-11-11T16:47:49;99692.34;;;10.12;0.00
23318;BME280;11831;55.918;37.746;2022-11-11T16:50:52;99695.09;;;9.99;0.00
23318;BME280;11831;55.918;37.746;2022-11-11T16:53:47;99671.59;;;10.07;0.00
23318;BME280;11831;55.918;37.746;2022-11-11T16:56:33;99651.56;;;9.98;0.00
23318;BME280;11831;55.918;37.746;2022-11-11T16:59:46;99633.81;;;10.04;0.00
23318;BME280;11831;55.918;37.746;2022-11-11T17:02:33;99644.84;;;10.14;0.00
23318;BME280;11831;55.918;37.746;2022-11-11T17:05:18;99648.16;;;10.09;0.00
23318;BME280;11831;55.918;37.746;2022-11-11T17:14:21;99633.72;;;10.17;0.00
23318;BME280;11831;55.918;37.746;2022-11-11T17:17:07;99627.56;;;10.16;0.00
23318;BME280;11831;55.918;37.746;2022-11-11T17:19:54;99625.16;;;10.08;0.00
23318;BME280;11831;55.918;37.746;2022-11-11T17:22:51;99648.66;;;10.00;0.00